Agua Caliente, CA

4:15 PM PST on March 03, 2015 (GMT -0800)
Mesa Grande | Change Station
CLOSE
Current Station
Personal Weather Station
Location: Santa Ysabel, CA
Elevation: 3481 ft
Nearby Weather Stations

Elev 3481 ft 33.21 °N, 116.75 °W | Updated 10 minutes ago

Partly Cloudy
Partly Cloudy
48.0 °F
Feels Like 48 °F
N
0.0
Wind Variable Wind from WNW
Gusts 4.0 mph

Today
High -- | Low -- °F
--% Chance of Precip.
Yesterday
High -- | Low -- °F
Precip. -- in
6:12 AM 5:45 PM
Waxing Gibbous, 97% visible
Pressure 29.86 in
Visibility 10.0 miles
Clouds Clear
Windchill 48 °F
Dew Point 41 °F
Humidity 78%
Rainfall 0.00 in
Snow Depth Not available.
UV 1.1 out of 12
Pollen 7.90 out of 12
Air Quality Not available.
Flu Activity Not available.
METAR KRNM 032353Z 27011KT 10SM CLR 13/07 A2987 RMK AO2 SLP112 T01330067 10156 20128 56009

More Conditions Fewer Conditions

Pressure 29.86 in
Visibility 10.0 miles
Clouds Clear
Windchill 48 °F
Dew Point 41 °F
Humidity 78%
Rainfall 0.00 in
Snow Depth Not available.
UV 1.1 out of 12
Pollen 7.90 out of 12
Air Quality Not available.
Flu Activity Not available.
METAR KRNM 032353Z 27011KT 10SM CLR 13/07 A2987 RMK AO2 SLP112 T01330067 10156 20128 56009

More Conditions Fewer Conditions

10-Day Weather Forecast

Almanac

Astronomy

Mar. 03, 2015 Rise Set
Actual Time
Civil Twilight
Nautical Twilight
Astronomical Twilight
Moon
Length of Visible Light
Length of Day
Tomorrow will be .
, % of the Moon is Illuminated

Today's Extremes

State Highs State Lows

Community

WunderPhotos

Upload Photos

1,802,330 photos uploaded!

WunderBlogs® & News

Nearby

Air Quality

  Air Quality AQ Index Pollutant
Not available.

Snow Depth

Station Depth Elevation

Earthquake Activity

City Distance Mag. Time & Date
Minimum magnitude displayed is 2.5.

Coastal Water Temperatures

Place Temperature

Nearby Weather Stations